METAR Data
IDs: Format: Raw Decoded Include TAF

Data at: 2329 UTC 25 Oct 2021

PADU 252256Z 34021G28KT 10SM FEW035 SCT050 BKN065 04/M02 A2957 RMK AO2 PK WND 33029/2245 SLP017 T00441022 PNO $
PADU 252156Z 33021G28KT 10SM SCT037 SCT050 BKN075 04/M02 A2955 RMK AO2 PK WND 33029/2120 SLP009 BLK WTR NE NW T00441022 PNO $
PADU 252056Z 34018G25KT 10SM BKN047 OVC060 04/M02 A2953 RMK AO2 PK WND 34034/2028 SLP005 BLK WTR NE NW 6//// T00441022 53030 PNO $
PADU 251956Z 02015G30KT 340V160 10SM BKN034 BKN040 OVC055 04/M02 A2950 RMK AO2 PK WND 33041/1859 RAB01E18 SLP994 T00391022 PNO $
PADU 251914Z 03016G32KT 340V100 10SM -RA SCT021 SCT035 BKN055 03/M02 A2949 RMK AO2 PK WND 33041/1859 RAB01 PNO $
PADU 251903Z 35018G41KT 4SM -RA BKN021 BKN036 BKN055 03/M01 A2948 RMK AO2 PK WND 33041/1859 RAB01 PNO $
PADU 251856Z 35012G27KT 320V020 10SM FEW019 SCT033 BKN047 03/M01 A2947 RMK AO2 PK WND 33038/1833 RAB02E17B42E52UPB17E21B40E41 SLP984 OBS PK WND 32042/1833 BLK WTR NE NW T00281006 PNO $
PADU 251825Z 35019G36KT 10SM FEW011 SCT025 BKN036 03/M02 A2946 RMK AO2 PK WND 35036/1822 RAB02E17UPB17E21 OBS PK WND 33045/1822 BLK WTR NE NW PNO $
PADU 251814Z 33011G30KT 5SM -RA BR SCT011 BKN023 OVC050 02/00 A2945 RMK AO2 PK WND 35030/1806 RAB02 PNO $
PADU 251756Z 33013G28KT 10SM FEW018 BKN045 OVC070 03/M02 A2944 RMK AO2 PK WND 33036/1728 WSHFT 1702 RAB23E40 SLP975 6//// T00331017 10039 20028 51029 PNO $
PADU 251722Z 33027G31KT 10SM SCT034 SCT045 BKN055 04/M01 A2942 RMK AO2 PK WND 33031/1722 WSHFT 1702 PNO $
PADU 251656Z 02011G19KT 310V060 10SM FEW018 SCT041 SCT060 03/M01 A2942 RMK AO2 PK WND 34036/1613 SLP966 T00331011 PNO $
PADU 251556Z 35021G32KT 10SM FEW020 BKN032 OVC045 03/M01 A2939 RMK AO2 PK WND 35040/1521 WSHFT 1445 RAE09 SLP957 T00331011 PNO $
PADU 251505Z 35018G29KT 10SM -RA FEW022 BKN031 OVC050 04/M03 A2937 RMK AO2 PK WND 34029/1501 WSHFT 1445 PNO $
PADU 251456Z 33023G29KT 10SM -RA FEW023 BKN035 OVC045 04/M01 A2936 RMK AO2 PK WND 33031/1415 RAB09 SLP946 6//// T00391011 51033 PNO $
PADU 251437Z AUTO VRB06G20KT 10SM -RA FEW024 BKN033 OVC046 04/M02 A2935 RMK AO2 PK WND 33031/1415 RAB09 PNO $
PADU 251356Z AUTO 34013G22KT 300V040 10SM OVC023 04/M01 A2933 RMK AO2 PK WND 34039/1345 RAE52 SLP936 T00391011 PNO $
PADU 251344Z AUTO 34021G29KT 10SM -RA BKN021 OVC034 03/M01 A2932 RMK AO2 PK WND 05035/1303 PNO $
PADU 251321Z AUTO 06015G30KT 030V090 10SM -RA FEW021 BKN033 OVC050 03/M02 A2930 RMK AO2 PK WND 05035/1303 PNO $
PADU 251256Z AUTO 06014G28KT 10SM -RA OVC023 03/M01 A2930 RMK AO2 PK WND 06035/1210 SLP928 T00281011 PNO $
PADU 251156Z AUTO 05019G34KT 360V080 7SM -RA BKN016 OVC023 03/00 A2926 RMK AO2 PK WND 03036/1130 RAB02 SLP913 6//// 7//// T00330000 10044 20028 53043 PNO $
PADU 251146Z AUTO 03016G33KT 8SM -RA BKN016 OVC029 04/00 A2925 RMK AO2 PK WND 03036/1130 RAB02 PNO $
PADU 251117Z AUTO 04016G26KT 6SM -RA BKN014 OVC027 03/01 A2922 RMK AO2 PK WND 03029/1101 RAB02 PNO $
PADU 251056Z AUTO 03021G29KT 10SM BKN027 BKN036 OVC060 04/M01 A2921 RMK AO2 PK WND 02032/1046 RAE03 SLP896 T00441011 PNO $
PADU 251007Z AUTO 03013G23KT 350V060 10SM SCT022 BKN028 OVC049 04/00 A2918 RMK AO2 RAE03 PNO $
PADU 250956Z AUTO 04018G23KT 10SM -RA SCT025 BKN031 OVC050 04/M01 A2917 RMK AO2 PK WND 03026/0940 RAB31 SLP883 T00391006 PNO $
PADU 250856Z AUTO 04023G29KT 10SM FEW019 BKN045 OVC050 04/00 A2913 RMK AO2 PK WND 01032/0814 RAE49 SLP869 6//// T00390000 51033 PNO $
PADU 250843Z AUTO 03019G28KT 10SM -RA FEW019 SCT035 OVC041 04/00 A2912 RMK AO2 PK WND 01032/0814 PNO $
PADU 250756Z AUTO 04018G28KT 7SM -RA OVC017 03/01 A2910 RMK AO2 PK WND 03029/0746 SLP860 T00330006 400500017 PNO $
PADU 250656Z AUTO 03008G19KT 10SM -RA OVC021 03/00 A2907 RMK AO2 SLP847 T00330000 PNO $
PADU 250556Z AUTO 05009G18KT 9SM -RA BKN019 OVC027 03/00 A2903 RMK AO2 SLP836 6//// T00330000 10033 20022 55000 PNO $
PADU 250456Z AUTO 09018G24KT 4SM -RA BR BKN017 OVC024 03/01 A2901 RMK AO2 PK WND 09037/0358 SLP828 T00330011 PNO $
PADU 250356Z AUTO 08022G32KT 3SM -RA BR BKN015 OVC020 03/01 A2901 RMK AO2 PK WND 09038/0302 SLP830 T00280011 PNO $
PADU 250303Z AUTO 10028G38KT 2SM -RA BR OVC015 03/01 A2903 RMK AO2 PK WND 09038/0302 VIS 1 1/2V3 PNO $
PADU 250256Z 09026G36KT 2SM RA BR BKN002 OVC013 03/01 A2903 RMK AO2 PK WND 08039/0228 SLP836 OBS PK WND 08045/0234 6//// T00280006 56052 PNO $
PADU 250224Z 09024G32KT 4SM RA BR BKN002 OVC013 03/01 A2905 RMK AO2 PK WND 07038/0200 OBS PK WND 08042/0152 PNO $
PADU 250156Z 10022G35KT 2SM RA BR BKN002 OVC015 03/00 A2907 RMK AO2 PK WND 10038/0110 SLP847 OBS PK WND 08042/0152 T00280000 PNO $
PADU 250103Z 09023G31KT 2SM -RA BR BKN002 OVC015 03/00 A2912 RMK AO2 PK WND 09031/0103 PRESFR PNO $
PADU 250056Z 09019G28KT 3SM -RA BR BKN003 OVC015 03/00 A2913 RMK AO2 PK WND 11029/0031 SNE12 SLP869 T00280000 PNO $
PADU 250025Z 10017G28KT 4SM -RA BKN003 OVC015 03/00 A2916 RMK AO2 PK WND 09028/0025 SNE12 PNO $
PADU 250014Z 08018G25KT 2 1/2SM -RA BR BKN003 OVC015 02/00 A2918 RMK AO2 SNE12 PNO $
PADU 250003Z 09014G33KT 3SM -RASN BKN003 OVC015 02/00 A2918 RMK AO2 PNO $
PADU 250000Z 09016G33KT 2 1/2SM -RASN OVC015 02/M01 A2919 RMK AO2 VIS 1 3/4V5 PNO $
PADU 242356Z 11021G33KT 2 1/2SM -RASN OVC013 02/M01 A2919 RMK AO2 PK WND 08033/2354 VIS 1 3/4V4 SNB03 SLP889 6//// T00221006 10044 20017 58079 PNO $
PADU 242347Z 08016G27KT 2 1/2SM -RASN OVC015 02/M01 A2920 RMK AO2 PK WND 08027/2340 VIS 1 3/4V4 SNB03 PNO $
PADU 242343Z 07020G27KT 3SM -RASN OVC013 02/00 A2920 RMK AO2 PK WND 08027/2340 SNB03 PRESFR PNO $
PADU 242303Z 09017G24KT 2SM -RASN BKN002 OVC007 02/M01 A2925 RMK AO2 SNB03 PRESFR PNO $
PADU 242256Z 09016G22KT 060V130 4SM -RA FEW004 OVC017 02/M01 A2926 RMK AO2 PK WND 11031/2233 SNE24 PRESFR SLP913 T00221006 PNO $
PADU 242230Z 11014G29KT 4SM -RA FEW004 OVC017 02/M01 A2931 RMK AO2 PK WND 14029/2228 SNE24 PRESFR PNO $
PADU 242203Z 12014G23KT 2SM -RASN FEW002 BKN014 OVC019 02/M01 A2935 RMK AO2 PNO $
PADU 242156Z 11011G19KT 2SM -RASN BKN003 BKN010 OVC012 02/M01 A2935 RMK AO2 PK WND 12029/2102 PRESFR SLP945 T00221006 PNO $
PADU 242119Z 10012G18KT 2SM -RASN BKN002 OVC006 02/M01 A2940 RMK AO2 PK WND 12029/2102 PRESFR PNO $
PADU 242056Z 12020G29KT 2SM -RASN FEW002 BKN005 OVC010 03/M02 A2942 RMK AO2 PK WND 12030/2045 SNB07 SLP967 ONS PK WND 10033/2053 BLK WTR NE 6//// T00281017 56041 PNO $
PADU 242051Z 12019G30KT 3SM -RASN FEW003 BKN008 OVC020 03/M02 A2942 RMK AO2 PK WND 12030/2045 SNB07 PRESFR BLK WTR NE PNO $
PADU 242030Z 12016G28KT 7SM -RA FEW004 BKN027 OVC044 03/M02 A2945 RMK AO2 PK WND 11028/2024 SNB07E23 BLK WTR NE PNO $
PADU 241956Z 10011KT 10SM -RA FEW022 BKN032 OVC048 03/M02 A2949 RMK AO2 SNB11E40 PRESFR SLP991 BLK WTR NE T00331017 PNO $
PADU 241944Z 10010G22KT 4SM -RA FEW003 BKN018 OVC020 03/M02 A2951 RMK AO2 SNB11E40 BLK WTR NE PNO $
PADU 241940Z 10012G24KT 6SM -RA BKN000 BKN020 OVC030 03/M02 A2951 RMK AO2 SNB11E40 BLK WTR NE PNO $
PADU 241933Z 11014G20KT 4SM -RASN FEW002 BKN032 OVC048 03/M02 A2951 RMK AO2 SNB11 BLK WTR NE PNO $
PADU 241923Z 14012KT 4SM -RASN FEW002 BKN013 OVC020 04/M02 A2952 RMK AO2 SNB11 VIS NE 2 1/2 BLK WTR NE PNO $
PADU 241856Z 12012G18KT 9SM -RA BKN035 OVC040 04/M02 A2954 RMK AO2 RAB46 SLP008 BLK WTR NE-E T00391022 PNO $
PADU 241756Z 13015G25KT 10SM SCT045 OVC110 04/M03 A2954 RMK AO2 PK WND 12026/1738 SLP009 6//// T00391028 10044 20017 58061 PNO $
PADU 241656Z 12013KT 10SM SCT045 SCT110 04/M03 A2962 RMK AO2 PRESFR SLP033 T00391028 PNO $
PADU 241556Z 16006KT 10SM CLR 03/M03 A2969 RMK AO2 SLP059 T00281028 PNO $
PADU 241456Z 00000KT 10SM CLR 03/M04 A2972 RMK AO2 SLP069 6//// T00281039 58046 PNO $
PADU 241356Z AUTO 00000KT 10SM BKN046 02/M03 A2980 RMK AO2 SLP094 T00221033 FZRANO PNO $
PADU 241256Z AUTO 00000KT 10SM BKN046 02/M03 A2983 RMK AO2 SLP107 T00221033 FZRANO PNO $
PADU 241156Z AUTO 36003KT 10SM BKN050 03/M04 A2986 RMK AO2 SLP115 6//// 7//// T00281039 10050 20028 58014 PNO $